sensor_id;sensor_type;location;lat;lon;timestamp;P1;durP1;ratioP1;P2;durP2;ratioP2
12770;SDS011;6449;47.666;9.160;2023-04-03T00:02:29;5.37;;;3.97;;
12770;SDS011;6449;47.666;9.160;2023-04-03T00:07:23;4.40;;;4.00;;
12770;SDS011;6449;47.666;9.160;2023-04-03T00:17:23;5.47;;;4.83;;
12770;SDS011;6449;47.666;9.160;2023-04-03T00:22:18;4.47;;;4.07;;
12770;SDS011;6449;47.666;9.160;2023-04-03T00:27:11;5.17;;;4.57;;
12770;SDS011;6449;47.666;9.160;2023-04-03T00:32:05;4.77;;;4.20;;
12770;SDS011;6449;47.666;9.160;2023-04-03T00:36:58;4.63;;;4.23;;
12770;SDS011;6449;47.666;9.160;2023-04-03T00:41:53;5.30;;;4.80;;
12770;SDS011;6449;47.666;9.160;2023-04-03T00:46:47;4.67;;;4.27;;
12770;SDS011;6449;47.666;9.160;2023-04-03T00:56:48;4.70;;;4.30;;
12770;SDS011;6449;47.666;9.160;2023-04-03T01:01:46;4.97;;;4.50;;
12770;SDS011;6449;47.666;9.160;2023-04-03T01:22:05;4.57;;;4.17;;
12770;SDS011;6449;47.666;9.160;2023-04-03T01:42:34;3.67;;;3.37;;
12770;SDS011;6449;47.666;9.160;2023-04-03T01:47:27;3.83;;;3.53;;
12770;SDS011;6449;47.666;9.160;2023-04-03T01:52:21;4.70;;;4.30;;
12770;SDS011;6449;47.666;9.160;2023-04-03T01:57:15;4.47;;;4.17;;
12770;SDS011;6449;47.666;9.160;2023-04-03T02:02:10;4.00;;;3.70;;
12770;SDS011;6449;47.666;9.160;2023-04-03T02:07:05;4.00;;;3.70;;
12770;SDS011;6449;47.666;9.160;2023-04-03T02:27:10;5.77;;;5.13;;
12770;SDS011;6449;47.666;9.160;2023-04-03T02:32:03;5.63;;;5.13;;
12770;SDS011;6449;47.666;9.160;2023-04-03T02:36:57;4.97;;;4.47;;
12770;SDS011;6449;47.666;9.160;2023-04-03T02:46:59;5.90;;;5.20;;
12770;SDS011;6449;47.666;9.160;2023-04-03T02:51:54;5.63;;;5.03;;
12770;SDS011;6449;47.666;9.160;2023-04-03T02:56:47;5.67;;;5.17;;
12770;SDS011;6449;47.666;9.160;2023-04-03T03:11:40;5.40;;;4.90;;
12770;SDS011;6449;47.666;9.160;2023-04-03T03:26:33;8.67;;;4.83;;
12770;SDS011;6449;47.666;9.160;2023-04-03T03:31:28;5.07;;;4.40;;
12770;SDS011;6449;47.666;9.160;2023-04-03T03:46:31;4.87;;;4.47;;
12770;SDS011;6449;47.666;9.160;2023-04-03T03:51:24;5.47;;;4.40;;
12770;SDS011;6449;47.666;9.160;2023-04-03T03:56:18;6.03;;;4.57;;
12770;SDS011;6449;47.666;9.160;2023-04-03T04:01:11;4.00;;;3.70;;
12770;SDS011;6449;47.666;9.160;2023-04-03T04:06:06;3.73;;;3.43;;
12770;SDS011;6449;47.666;9.160;2023-04-03T04:11:00;4.97;;;3.63;;
12770;SDS011;6449;47.666;9.160;2023-04-03T04:15:54;4.07;;;3.67;;
12770;SDS011;6449;47.666;9.160;2023-04-03T04:20:47;3.30;;;3.00;;
12770;SDS011;6449;47.666;9.160;2023-04-03T04:25:43;3.83;;;3.53;;
12770;SDS011;6449;47.666;9.160;2023-04-03T04:30:40;3.70;;;3.40;;
12770;SDS011;6449;47.666;9.160;2023-04-03T04:35:41;3.47;;;3.17;;
12770;SDS011;6449;47.666;9.160;2023-04-03T04:40:35;3.37;;;3.07;;
12770;SDS011;6449;47.666;9.160;2023-04-03T04:45:31;4.03;;;3.63;;
12770;SDS011;6449;47.666;9.160;2023-04-03T04:50:24;3.90;;;3.50;;
12770;SDS011;6449;47.666;9.160;2023-04-03T05:05:38;3.57;;;3.27;;
12770;SDS011;6449;47.666;9.160;2023-04-03T05:10:32;3.73;;;2.80;;
12770;SDS011;6449;47.666;9.160;2023-04-03T05:15:25;3.33;;;3.03;;
12770;SDS011;6449;47.666;9.160;2023-04-03T05:20:18;3.40;;;3.10;;
12770;SDS011;6449;47.666;9.160;2023-04-03T05:25:13;3.17;;;2.87;;
12770;SDS011;6449;47.666;9.160;2023-04-03T05:30:07;2.90;;;2.60;;
12770;SDS011;6449;47.666;9.160;2023-04-03T05:35:02;3.13;;;2.93;;
12770;SDS011;6449;47.666;9.160;2023-04-03T05:39:57;3.90;;;3.50;;
12770;SDS011;6449;47.666;9.160;2023-04-03T05:44:51;3.97;;;3.00;;
12770;SDS011;6449;47.666;9.160;2023-04-03T05:49:45;3.07;;;2.73;;
12770;SDS011;6449;47.666;9.160;2023-04-03T05:54:39;4.00;;;2.93;;
12770;SDS011;6449;47.666;9.160;2023-04-03T05:59:33;4.53;;;3.30;;
12770;SDS011;6449;47.666;9.160;2023-04-03T06:04:27;3.10;;;2.80;;
12770;SDS011;6449;47.666;9.160;2023-04-03T06:09:22;3.83;;;2.67;;
12770;SDS011;6449;47.666;9.160;2023-04-03T06:14:20;4.00;;;3.47;;
12770;SDS011;6449;47.666;9.160;2023-04-03T06:19:13;4.27;;;3.40;;
12770;SDS011;6449;47.666;9.160;2023-04-03T06:24:13;3.33;;;3.03;;
12770;SDS011;6449;47.666;9.160;2023-04-03T06:29:09;3.23;;;2.70;;
12770;SDS011;6449;47.666;9.160;2023-04-03T06:34:02;4.43;;;2.80;;
12770;SDS011;6449;47.666;9.160;2023-04-03T06:38:59;3.00;;;2.70;;
12770;SDS011;6449;47.666;9.160;2023-04-03T06:43:55;4.57;;;3.20;;
12770;SDS011;6449;47.666;9.160;2023-04-03T06:48:49;3.03;;;2.73;;
12770;SDS011;6449;47.666;9.160;2023-04-03T06:53:43;4.43;;;2.80;;
12770;SDS011;6449;47.666;9.160;2023-04-03T06:58:37;3.83;;;3.53;;
12770;SDS011;6449;47.666;9.160;2023-04-03T07:03:32;3.70;;;3.27;;
12770;SDS011;6449;47.666;9.160;2023-04-03T07:08:26;5.07;;;3.47;;
12770;SDS011;6449;47.666;9.160;2023-04-03T07:13:20;3.73;;;3.00;;
12770;SDS011;6449;47.666;9.160;2023-04-03T07:18:35;3.47;;;3.17;;
12770;SDS011;6449;47.666;9.160;2023-04-03T07:23:31;4.50;;;3.40;;
12770;SDS011;6449;47.666;9.160;2023-04-03T07:28:25;3.37;;;3.03;;
12770;SDS011;6449;47.666;9.160;2023-04-03T07:33:19;3.60;;;3.30;;
12770;SDS011;6449;47.666;9.160;2023-04-03T07:38:16;4.83;;;3.20;;
12770;SDS011;6449;47.666;9.160;2023-04-03T07:43:10;3.30;;;3.00;;
12770;SDS011;6449;47.666;9.160;2023-04-03T07:48:03;3.60;;;3.30;;
12770;SDS011;6449;47.666;9.160;2023-04-03T07:52:58;4.93;;;3.13;;
12770;SDS011;6449;47.666;9.160;2023-04-03T07:57:53;3.87;;;3.37;;
12770;SDS011;6449;47.666;9.160;2023-04-03T08:02:46;5.87;;;5.03;;
12770;SDS011;6449;47.666;9.160;2023-04-03T08:07:43;3.40;;;3.10;;
12770;SDS011;6449;47.666;9.160;2023-04-03T08:12:36;3.83;;;3.50;;
12770;SDS011;6449;47.666;9.160;2023-04-03T08:17:31;3.63;;;3.30;;
12770;SDS011;6449;47.666;9.160;2023-04-03T08:22:25;4.57;;;3.70;;
12770;SDS011;6449;47.666;9.160;2023-04-03T08:27:18;3.80;;;3.40;;
12770;SDS011;6449;47.666;9.160;2023-04-03T08:32:12;4.50;;;4.10;;
12770;SDS011;6449;47.666;9.160;2023-04-03T08:37:07;4.50;;;3.70;;
12770;SDS011;6449;47.666;9.160;2023-04-03T08:42:02;4.03;;;3.63;;
12770;SDS011;6449;47.666;9.160;2023-04-03T08:47:11;5.97;;;4.00;;
12770;SDS011;6449;47.666;9.160;2023-04-03T08:52:18;3.97;;;3.57;;
12770;SDS011;6449;47.666;9.160;2023-04-03T08:57:20;3.83;;;3.53;;
12770;SDS011;6449;47.666;9.160;2023-04-03T09:02:26;4.47;;;4.03;;
12770;SDS011;6449;47.666;9.160;2023-04-03T09:07:30;5.63;;;4.13;;
12770;SDS011;6449;47.666;9.160;2023-04-03T09:12:32;5.57;;;4.10;;
12770;SDS011;6449;47.666;9.160;2023-04-03T09:17:37;5.73;;;4.00;;
12770;SDS011;6449;47.666;9.160;2023-04-03T09:22:47;4.53;;;3.77;;
12770;SDS011;6449;47.666;9.160;2023-04-03T09:27:43;4.40;;;4.00;;
12770;SDS011;6449;47.666;9.160;2023-04-03T09:32:37;4.50;;;4.10;;
12770;SDS011;6449;47.666;9.160;2023-04-03T09:37:34;4.63;;;3.90;;
12770;SDS011;6449;47.666;9.160;2023-04-03T09:42:34;3.90;;;3.33;;
12770;SDS011;6449;47.666;9.160;2023-04-03T09:47:42;4.90;;;4.40;;
12770;SDS011;6449;47.666;9.160;2023-04-03T09:52:35;4.53;;;3.87;;
12770;SDS011;6449;47.666;9.160;2023-04-03T09:57:32;6.07;;;3.57;;
12770;SDS011;6449;47.666;9.160;2023-04-03T10:07:43;3.90;;;3.50;;
12770;SDS011;6449;47.666;9.160;2023-04-03T10:13:04;3.77;;;3.43;;
12770;SDS011;6449;47.666;9.160;2023-04-03T10:18:05;7.00;;;3.60;;
12770;SDS011;6449;47.666;9.160;2023-04-03T10:23:20;3.93;;;3.23;;
12770;SDS011;6449;47.666;9.160;2023-04-03T10:28:21;4.13;;;3.73;;
12770;SDS011;6449;47.666;9.160;2023-04-03T10:38:51;4.00;;;3.60;;
12770;SDS011;6449;47.666;9.160;2023-04-03T10:43:59;4.23;;;3.83;;
12770;SDS011;6449;47.666;9.160;2023-04-03T10:49:15;3.87;;;3.40;;
12770;SDS011;6449;47.666;9.160;2023-04-03T10:54:29;7.63;;;3.57;;
12770;SDS011;6449;47.666;9.160;2023-04-03T10:59:33;4.00;;;3.60;;
12770;SDS011;6449;47.666;9.160;2023-04-03T11:04:31;4.33;;;3.93;;
12770;SDS011;6449;47.666;9.160;2023-04-03T11:09:32;4.07;;;3.63;;
12770;SDS011;6449;47.666;9.160;2023-04-03T11:14:31;4.27;;;3.30;;
12770;SDS011;6449;47.666;9.160;2023-04-03T11:19:32;3.80;;;3.40;;
12770;SDS011;6449;47.666;9.160;2023-04-03T11:24:31;3.87;;;3.17;;
12770;SDS011;6449;47.666;9.160;2023-04-03T11:29:31;4.67;;;3.40;;
12770;SDS011;6449;47.666;9.160;2023-04-03T11:34:33;4.67;;;2.80;;
12770;SDS011;6449;47.666;9.160;2023-04-03T11:44:29;3.60;;;3.20;;
12770;SDS011;6449;47.666;9.160;2023-04-03T11:54:48;3.00;;;2.70;;
12770;SDS011;6449;47.666;9.160;2023-04-03T11:59:43;2.97;;;2.63;;
12770;SDS011;6449;47.666;9.160;2023-04-03T12:04:36;3.10;;;2.80;;
12770;SDS011;6449;47.666;9.160;2023-04-03T12:15:25;3.10;;;2.80;;
12770;SDS011;6449;47.666;9.160;2023-04-03T12:26:19;2.93;;;2.73;;
12770;SDS011;6449;47.666;9.160;2023-04-03T12:31:25;3.07;;;2.77;;
12770;SDS011;6449;47.666;9.160;2023-04-03T12:41:45;4.80;;;3.30;;
12770;SDS011;6449;47.666;9.160;2023-04-03T12:46:53;3.97;;;2.70;;
12770;SDS011;6449;47.666;9.160;2023-04-03T12:56:51;3.07;;;2.60;;
12770;SDS011;6449;47.666;9.160;2023-04-03T13:02:00;2.40;;;2.20;;
12770;SDS011;6449;47.666;9.160;2023-04-03T13:17:18;3.67;;;2.30;;
12770;SDS011;6449;47.666;9.160;2023-04-03T13:22:18;3.07;;;2.47;;
12770;SDS011;6449;47.666;9.160;2023-04-03T13:27:21;4.13;;;2.60;;
12770;SDS011;6449;47.666;9.160;2023-04-03T13:32:31;2.70;;;2.50;;
12770;SDS011;6449;47.666;9.160;2023-04-03T13:37:26;3.10;;;2.60;;
12770;SDS011;6449;47.666;9.160;2023-04-03T13:42:25;2.67;;;2.47;;
12770;SDS011;6449;47.666;9.160;2023-04-03T13:47:22;3.40;;;2.40;;
12770;SDS011;6449;47.666;9.160;2023-04-03T13:52:27;2.30;;;2.10;;
12770;SDS011;6449;47.666;9.160;2023-04-03T14:02:31;3.20;;;2.20;;
12770;SDS011;6449;47.666;9.160;2023-04-03T14:12:35;3.57;;;2.53;;
12770;SDS011;6449;47.666;9.160;2023-04-03T14:22:39;3.43;;;2.50;;
12770;SDS011;6449;47.666;9.160;2023-04-03T14:27:34;3.90;;;2.97;;
12770;SDS011;6449;47.666;9.160;2023-04-03T14:37:38;3.97;;;2.60;;
12770;SDS011;6449;47.666;9.160;2023-04-03T14:42:32;4.87;;;2.80;;
12770;SDS011;6449;47.666;9.160;2023-04-03T14:52:34;3.20;;;2.60;;
12770;SDS011;6449;47.666;9.160;2023-04-03T14:57:30;2.97;;;2.57;;
12770;SDS011;6449;47.666;9.160;2023-04-03T15:02:27;3.47;;;2.80;;
12770;SDS011;6449;47.666;9.160;2023-04-03T15:07:28;2.90;;;2.60;;
12770;SDS011;6449;47.666;9.160;2023-04-03T15:12:26;4.53;;;2.90;;
12770;SDS011;6449;47.666;9.160;2023-04-03T15:17:19;2.53;;;2.33;;
12770;SDS011;6449;47.666;9.160;2023-04-03T15:22:17;3.83;;;2.40;;
12770;SDS011;6449;47.666;9.160;2023-04-03T15:37:27;2.97;;;2.43;;
12770;SDS011;6449;47.666;9.160;2023-04-03T15:52:24;2.87;;;2.57;;
12770;SDS011;6449;47.666;9.160;2023-04-03T15:57:19;3.00;;;2.80;;
12770;SDS011;6449;47.666;9.160;2023-04-03T16:02:17;3.83;;;2.80;;
12770;SDS011;6449;47.666;9.160;2023-04-03T16:07:11;3.10;;;2.80;;
12770;SDS011;6449;47.666;9.160;2023-04-03T16:12:04;2.90;;;2.63;;
12770;SDS011;6449;47.666;9.160;2023-04-03T16:16:59;2.67;;;2.47;;
12770;SDS011;6449;47.666;9.160;2023-04-03T16:21:53;3.53;;;2.97;;
12770;SDS011;6449;47.666;9.160;2023-04-03T16:31:54;3.40;;;3.03;;
12770;SDS011;6449;47.666;9.160;2023-04-03T16:36:50;3.17;;;2.87;;
12770;SDS011;6449;47.666;9.160;2023-04-03T16:41:44;2.87;;;2.67;;
12770;SDS011;6449;47.666;9.160;2023-04-03T16:46:38;3.37;;;2.83;;
12770;SDS011;6449;47.666;9.160;2023-04-03T16:56:40;3.37;;;2.90;;
12770;SDS011;6449;47.666;9.160;2023-04-03T17:01:34;4.00;;;2.97;;
12770;SDS011;6449;47.666;9.160;2023-04-03T17:06:30;3.00;;;2.70;;
12770;SDS011;6449;47.666;9.160;2023-04-03T17:11:24;3.17;;;2.50;;
12770;SDS011;6449;47.666;9.160;2023-04-03T17:16:19;3.63;;;2.73;;
12770;SDS011;6449;47.666;9.160;2023-04-03T17:21:13;4.60;;;3.20;;
12770;SDS011;6449;47.666;9.160;2023-04-03T17:26:09;3.00;;;2.60;;
12770;SDS011;6449;47.666;9.160;2023-04-03T17:31:02;3.37;;;2.70;;
12770;SDS011;6449;47.666;9.160;2023-04-03T17:35:58;3.07;;;2.77;;
12770;SDS011;6449;47.666;9.160;2023-04-03T17:40:55;3.80;;;3.00;;
12770;SDS011;6449;47.666;9.160;2023-04-03T17:46:03;3.17;;;2.77;;
12770;SDS011;6449;47.666;9.160;2023-04-03T17:51:04;4.03;;;2.63;;
12770;SDS011;6449;47.666;9.160;2023-04-03T17:55:58;4.10;;;2.90;;
12770;SDS011;6449;47.666;9.160;2023-04-03T18:00:58;3.00;;;2.73;;
12770;SDS011;6449;47.666;9.160;2023-04-03T18:05:51;4.57;;;3.10;;
12770;SDS011;6449;47.666;9.160;2023-04-03T18:10:47;3.13;;;2.70;;
12770;SDS011;6449;47.666;9.160;2023-04-03T18:15:41;2.97;;;2.57;;
12770;SDS011;6449;47.666;9.160;2023-04-03T18:20:36;3.17;;;2.60;;
12770;SDS011;6449;47.666;9.160;2023-04-03T18:25:29;2.77;;;2.23;;
12770;SDS011;6449;47.666;9.160;2023-04-03T18:30:24;3.83;;;2.43;;
12770;SDS011;6449;47.666;9.160;2023-04-03T18:35:19;2.93;;;2.57;;
12770;SDS011;6449;47.666;9.160;2023-04-03T18:40:13;3.13;;;2.40;;
12770;SDS011;6449;47.666;9.160;2023-04-03T18:45:07;3.70;;;2.77;;
12770;SDS011;6449;47.666;9.160;2023-04-03T18:50:07;4.07;;;2.47;;
12770;SDS011;6449;47.666;9.160;2023-04-03T18:55:02;4.50;;;2.70;;
12770;SDS011;6449;47.666;9.160;2023-04-03T18:59:56;4.03;;;2.43;;
12770;SDS011;6449;47.666;9.160;2023-04-03T19:04:50;2.57;;;2.33;;
12770;SDS011;6449;47.666;9.160;2023-04-03T19:09:47;5.03;;;3.00;;
12770;SDS011;6449;47.666;9.160;2023-04-03T19:14:41;3.60;;;2.50;;
12770;SDS011;6449;47.666;9.160;2023-04-03T19:19:34;3.80;;;2.47;;
12770;SDS011;6449;47.666;9.160;2023-04-03T19:24:28;3.07;;;2.53;;
12770;SDS011;6449;47.666;9.160;2023-04-03T19:29:23;3.10;;;2.57;;
12770;SDS011;6449;47.666;9.160;2023-04-03T19:34:16;4.27;;;2.80;;
12770;SDS011;6449;47.666;9.160;2023-04-03T19:39:10;4.33;;;2.80;;
12770;SDS011;6449;47.666;9.160;2023-04-03T19:44:06;3.33;;;2.13;;
12770;SDS011;6449;47.666;9.160;2023-04-03T19:49:02;2.33;;;1.90;;
12770;SDS011;6449;47.666;9.160;2023-04-03T19:53:56;2.60;;;1.80;;
12770;SDS011;6449;47.666;9.160;2023-04-03T19:58:49;2.90;;;2.03;;
12770;SDS011;6449;47.666;9.160;2023-04-03T20:03:45;2.83;;;1.83;;
12770;SDS011;6449;47.666;9.160;2023-04-03T20:08:39;2.67;;;1.77;;
12770;SDS011;6449;47.666;9.160;2023-04-03T20:13:33;3.93;;;2.40;;
12770;SDS011;6449;47.666;9.160;2023-04-03T20:18:28;3.77;;;2.00;;
12770;SDS011;6449;47.666;9.160;2023-04-03T20:23:22;3.83;;;2.30;;
12770;SDS011;6449;47.666;9.160;2023-04-03T20:28:18;2.57;;;1.90;;
12770;SDS011;6449;47.666;9.160;2023-04-03T20:33:13;4.20;;;2.10;;
12770;SDS011;6449;47.666;9.160;2023-04-03T20:38:06;3.73;;;2.40;;
12770;SDS011;6449;47.666;9.160;2023-04-03T20:43:00;2.17;;;1.97;;
12770;SDS011;6449;47.666;9.160;2023-04-03T20:47:54;2.57;;;1.83;;
12770;SDS011;6449;47.666;9.160;2023-04-03T20:52:48;2.30;;;1.60;;
12770;SDS011;6449;47.666;9.160;2023-04-03T20:57:41;3.27;;;2.00;;
12770;SDS011;6449;47.666;9.160;2023-04-03T21:02:44;3.97;;;1.80;;
12770;SDS011;6449;47.666;9.160;2023-04-03T21:19:24;2.53;;;1.63;;
12770;SDS011;6449;47.666;9.160;2023-04-03T21:24:17;2.07;;;1.70;;
12770;SDS011;6449;47.666;9.160;2023-04-03T21:29:11;3.27;;;1.60;;
12770;SDS011;6449;47.666;9.160;2023-04-03T21:34:05;1.63;;;1.50;;
12770;SDS011;6449;47.666;9.160;2023-04-03T21:38:59;2.27;;;1.63;;
12770;SDS011;6449;47.666;9.160;2023-04-03T21:43:53;4.77;;;1.70;;
12770;SDS011;6449;47.666;9.160;2023-04-03T21:48:47;3.07;;;2.10;;
12770;SDS011;6449;47.666;9.160;2023-04-03T21:53:41;1.83;;;1.70;;
12770;SDS011;6449;47.666;9.160;2023-04-03T21:58:36;2.90;;;1.90;;
12770;SDS011;6449;47.666;9.160;2023-04-03T22:03:29;3.07;;;2.00;;
12770;SDS011;6449;47.666;9.160;2023-04-03T22:08:25;2.83;;;2.20;;
12770;SDS011;6449;47.666;9.160;2023-04-03T22:13:18;2.93;;;1.80;;
12770;SDS011;6449;47.666;9.160;2023-04-03T22:18:13;3.43;;;2.13;;
12770;SDS011;6449;47.666;9.160;2023-04-03T22:23:07;3.03;;;1.73;;
12770;SDS011;6449;47.666;9.160;2023-04-03T22:28:00;4.40;;;2.10;;
12770;SDS011;6449;47.666;9.160;2023-04-03T22:32:53;1.80;;;1.70;;
12770;SDS011;6449;47.666;9.160;2023-04-03T22:37:48;3.67;;;2.07;;
12770;SDS011;6449;47.666;9.160;2023-04-03T22:42:44;3.03;;;2.00;;
12770;SDS011;6449;47.666;9.160;2023-04-03T22:47:38;2.53;;;1.90;;
12770;SDS011;6449;47.666;9.160;2023-04-03T22:52:32;3.00;;;2.00;;
12770;SDS011;6449;47.666;9.160;2023-04-03T22:57:26;3.00;;;2.13;;
12770;SDS011;6449;47.666;9.160;2023-04-03T23:02:20;2.70;;;2.00;;
12770;SDS011;6449;47.666;9.160;2023-04-03T23:07:13;3.20;;;1.93;;
12770;SDS011;6449;47.666;9.160;2023-04-03T23:12:07;2.70;;;1.70;;
12770;SDS011;6449;47.666;9.160;2023-04-03T23:17:02;3.10;;;1.90;;
12770;SDS011;6449;47.666;9.160;2023-04-03T23:21:56;2.93;;;1.80;;
12770;SDS011;6449;47.666;9.160;2023-04-03T23:26:50;2.37;;;1.90;;
12770;SDS011;6449;47.666;9.160;2023-04-03T23:31:43;2.30;;;2.10;;
12770;SDS011;6449;47.666;9.160;2023-04-03T23:36:38;2.80;;;2.30;;
12770;SDS011;6449;47.666;9.160;2023-04-03T23:41:32;4.70;;;2.63;;
12770;SDS011;6449;47.666;9.160;2023-04-03T23:46:25;2.70;;;2.13;;
12770;SDS011;6449;47.666;9.160;2023-04-03T23:51:19;3.27;;;2.30;;
12770;SDS011;6449;47.666;9.160;2023-04-03T23:56:13;3.17;;;2.23;;
